Time;durP1;ratioP1;P1;durP2;ratioP2;P2;SDS_P1;SDS_P2;PMS_P1;PMS_P2;Temp;Humidity;BMP_temperature;BMP_pressure;BME280_temperature;BME280_humidity;BME280_pressure;Samples;Min_cycle;Max_cycle;Signal;HPM_P1;HPM_P2
2022/10/22 00:00:47;;;;;;;3.28;0.80;;;14.30;99.90;;;;;;5091696;28;20032;-78
2022/10/22 00:03:13;;;;;;;2.58;0.98;;;14.20;99.90;;;;;;5093443;28;20165;-78
2022/10/22 00:05:39;;;;;;;2.38;0.85;;;14.20;99.90;;;;;;5090359;28;20373;-77
2022/10/22 00:08:07;;;;;;;1.90;0.60;;;14.20;99.90;;;;;;5094238;28;20080;-79
2022/10/22 00:10:33;;;;;;;2.83;0.73;;;14.10;99.90;;;;;;5091521;28;20020;-79
2022/10/22 00:13:05;;;;;;;4.25;1.15;;;14.10;99.90;;;;;;5095020;28;20384;-78
2022/10/22 00:15:33;;;;;;;4.05;0.85;;;14.20;99.90;;;;;;5088309;28;20098;-79
2022/10/22 00:17:59;;;;;;;3.30;0.73;;;14.20;99.90;;;;;;5094978;28;20024;-79
2022/10/22 00:20:25;;;;;;;2.53;0.70;;;14.10;99.90;;;;;;5093051;28;20032;-79
2022/10/22 00:22:50;;;;;;;2.47;1.00;;;14.20;99.90;;;;;;5105109;28;20028;-78
2022/10/22 00:25:19;;;;;;;3.42;0.80;;;14.10;99.90;;;;;;5090431;28;20058;-78
2022/10/22 00:27:44;;;;;;;4.03;0.80;;;14.10;99.90;;;;;;5090709;28;20024;-78
2022/10/22 00:30:13;;;;;;;4.10;0.80;;;14.10;99.90;;;;;;5092111;28;20388;-79
2022/10/22 00:32:39;;;;;;;2.40;0.50;;;14.10;99.90;;;;;;5095969;28;20504;-79
2022/10/22 00:35:05;;;;;;;4.10;0.90;;;14.10;99.90;;;;;;5091538;28;20036;-78
2022/10/22 00:37:31;;;;;;;2.63;0.60;;;14.10;99.90;;;;;;5089486;28;20044;-78
2022/10/22 00:39:56;;;;;;;4.50;0.82;;;14.10;99.90;;;;;;5090923;28;20032;-78
2022/10/22 00:42:24;;;;;;;3.17;0.73;;;14.10;99.90;;;;;;5099025;28;20396;-79
2022/10/22 00:45:05;;;;;;;3.08;0.60;;;14.10;99.90;;;;;;5092398;28;20484;-78
2022/10/22 00:47:34;;;;;;;2.67;0.70;;;14.00;99.90;;;;;;5090014;28;20036;-79
2022/10/22 00:50:02;;;;;;;2.70;0.40;;;14.00;99.90;;;;;;5089181;28;20472;-78
2022/10/22 00:52:28;;;;;;;3.08;0.73;;;14.00;99.90;;;;;;5089643;28;20020;-79
2022/10/22 00:54:53;;;;;;;2.45;0.43;;;14.00;99.90;;;;;;5090429;28;20032;-79
2022/10/22 00:57:20;;;;;;;1.33;0.52;;;14.00;99.90;;;;;;5107839;28;20115;-78
2022/10/22 00:59:47;;;;;;;2.00;0.70;;;14.00;99.90;;;;;;5090656;28;20043;-79
2022/10/22 01:02:13;;;;;;;2.17;0.63;;;14.00;99.90;;;;;;5089116;28;20105;-78
2022/10/22 01:04:39;;;;;;;2.00;0.75;;;14.00;99.90;;;;;;5089880;28;20027;-79
2022/10/22 01:07:05;;;;;;;2.83;0.88;;;14.00;99.90;;;;;;5094621;28;20066;-80
2022/10/22 01:09:45;;;;;;;1.85;0.60;;;13.90;99.90;;;;;;5094487;28;20081;-79
2022/10/22 01:12:16;;;;;;;1.00;0.82;;;13.90;99.90;;;;;;5092358;28;20209;-79
2022/10/22 01:15:02;;;;;;;1.02;0.60;;;13.90;99.90;;;;;;5092758;28;20498;-79
2022/10/22 01:17:34;;;;;;;1.45;0.60;;;13.90;99.90;;;;;;5086760;28;20029;-79
2022/10/22 01:20:12;;;;;;;1.60;0.50;;;13.90;99.90;;;;;;5096067;28;20020;-79
2022/10/22 01:22:43;;;;;;;1.33;0.70;;;13.90;99.90;;;;;;5092367;28;20035;-79
2022/10/22 01:25:31;;;;;;;5.00;0.90;;;13.90;99.90;;;;;;5094707;28;20067;-79
2022/10/22 01:28:13;;;;;;;1.42;0.60;;;13.90;99.90;;;;;;5095123;28;20032;-79
2022/10/22 01:30:40;;;;;;;2.88;0.75;;;13.90;99.90;;;;;;5096319;28;20483;-79
2022/10/22 01:33:09;;;;;;;2.67;0.90;;;13.90;99.90;;;;;;5096741;28;20020;-79
2022/10/22 01:35:40;;;;;;;3.80;0.77;;;13.90;99.90;;;;;;5075823;28;20031;-79
2022/10/22 01:38:11;;;;;;;3.80;0.80;;;13.80;99.90;;;;;;5075888;28;20024;-79
2022/10/22 01:40:38;;;;;;;2.65;0.85;;;13.80;99.90;;;;;;5092010;28;20054;-79
2022/10/22 01:43:06;;;;;;;2.28;0.52;;;13.80;99.90;;;;;;5099479;28;20027;-79
2022/10/22 01:45:35;;;;;;;1.95;0.80;;;13.80;99.90;;;;;;5099199;28;20020;-79
2022/10/22 01:48:03;;;;;;;1.00;0.60;;;13.80;99.90;;;;;;5101411;28;20020;-80
2022/10/22 01:51:02;;;;;;;0.77;0.40;;;13.80;99.90;;;;;;5097543;28;20024;-79
2022/10/22 01:53:43;;;;;;;1.98;0.40;;;13.70;99.90;;;;;;5100642;28;20016;-79
2022/10/22 01:56:30;;;;;;;3.03;0.57;;;13.70;99.90;;;;;;5100485;28;20032;-79
2022/10/22 01:59:19;;;;;;;1.63;0.47;;;13.70;99.90;;;;;;5097487;28;20024;-79
2022/10/22 02:02:06;;;;;;;1.48;0.65;;;13.70;99.90;;;;;;5095751;28;20250;-79
2022/10/22 02:04:53;;;;;;;7.47;0.57;;;13.60;99.90;;;;;;5095651;28;20422;-79
2022/10/22 02:07:24;;;;;;;1.65;0.70;;;13.50;99.90;;;;;;5095649;28;20024;-79
2022/10/22 02:09:52;;;;;;;2.38;0.50;;;13.50;99.90;;;;;;5098427;28;20089;-79
2022/10/22 02:12:20;;;;;;;2.28;0.60;;;13.50;99.90;;;;;;5098748;28;20468;-80
2022/10/22 02:14:47;;;;;;;5.03;0.47;;;13.50;99.90;;;;;;5097581;28;20024;-79
2022/10/22 02:17:17;;;;;;;1.10;0.77;;;13.50;99.90;;;;;;5097905;28;20028;-79
2022/10/22 02:19:59;;;;;;;1.52;0.32;;;13.50;99.90;;;;;;5079107;28;20033;-79
2022/10/22 02:22:26;;;;;;;0.73;0.22;;;13.40;99.90;;;;;;5087469;28;20119;-80
2022/10/22 02:24:52;;;;;;;1.00;0.50;;;13.40;99.90;;;;;;5100286;28;20032;-80
2022/10/22 02:27:29;;;;;;;2.00;0.45;;;13.50;99.90;;;;;;5090257;28;20028;-80
2022/10/22 02:30:05;;;;;;;2.15;0.50;;;13.50;99.90;;;;;;5092914;28;20445;-80
2022/10/22 02:32:41;;;;;;;0.98;0.60;;;13.50;99.90;;;;;;5094860;28;20159;-80
2022/10/22 02:35:10;;;;;;;1.38;0.30;;;13.50;99.90;;;;;;5096837;28;20032;-80
2022/10/22 02:37:37;;;;;;;2.05;0.45;;;13.50;99.90;;;;;;5098482;28;20028;-80
2022/10/22 02:40:03;;;;;;;1.65;0.47;;;13.50;99.90;;;;;;5094734;28;20069;-81
2022/10/22 02:42:29;;;;;;;1.25;0.47;;;13.50;99.90;;;;;;5097907;28;20031;-80
2022/10/22 02:44:55;;;;;;;0.60;0.30;;;13.50;99.90;;;;;;5101038;28;20020;-80
2022/10/22 02:47:20;;;;;;;3.10;0.60;;;13.50;99.90;;;;;;5098412;28;20043;-80
2022/10/22 02:49:46;;;;;;;1.77;0.47;;;13.50;99.90;;;;;;5095675;28;20020;-79
2022/10/22 02:52:15;;;;;;;1.27;0.60;;;13.50;99.90;;;;;;5095924;28;20027;-79
2022/10/22 02:54:43;;;;;;;1.08;0.43;;;13.50;99.90;;;;;;5085614;28;20032;-79
2022/10/22 02:57:09;;;;;;;1.25;0.50;;;13.50;99.90;;;;;;5095331;28;20024;-79
2022/10/22 02:59:34;;;;;;;3.70;0.40;;;13.40;99.90;;;;;;5099332;28;20035;-79
2022/10/22 03:02:00;;;;;;;0.55;0.45;;;13.40;99.90;;;;;;5100061;28;20051;-80
2022/10/22 03:04:26;;;;;;;0.85;0.60;;;13.40;99.90;;;;;;5099441;28;20028;-80
2022/10/22 03:06:51;;;;;;;1.20;0.82;;;13.50;99.90;;;;;;5097952;28;20030;-80
2022/10/22 03:09:17;;;;;;;1.92;0.60;;;13.50;99.90;;;;;;5099151;28;20088;-80
2022/10/22 03:11:43;;;;;;;1.65;0.40;;;13.40;99.90;;;;;;5099721;28;20049;-80
2022/10/22 03:14:08;;;;;;;1.85;0.35;;;13.50;99.90;;;;;;5098610;28;20035;-79
2022/10/22 03:16:34;;;;;;;0.55;0.40;;;13.50;99.90;;;;;;5092183;28;20032;-79
2022/10/22 03:19:03;;;;;;;2.35;0.70;;;13.50;99.90;;;;;;5094299;28;20063;-79
2022/10/22 03:21:42;;;;;;;0.70;0.32;;;13.50;99.90;;;;;;5091437;28;20037;-79
2022/10/22 03:24:19;;;;;;;3.42;0.50;;;13.50;99.90;;;;;;5092031;28;20043;-78
2022/10/22 03:26:47;;;;;;;1.17;0.40;;;13.50;99.90;;;;;;5086489;28;20032;-79
2022/10/22 03:29:14;;;;;;;3.10;0.30;;;13.50;99.90;;;;;;5092088;28;20020;-79
2022/10/22 03:31:49;;;;;;;1.27;0.35;;;13.50;99.90;;;;;;5094712;28;20024;-78
2022/10/22 03:34:15;;;;;;;1.23;0.80;;;13.50;99.90;;;;;;5095149;28;20020;-78
2022/10/22 03:36:41;;;;;;;0.52;0.40;;;13.60;99.90;;;;;;5085866;28;20052;-78
2022/10/22 03:39:06;;;;;;;0.43;0.40;;;13.60;99.90;;;;;;5090828;28;20033;-78
2022/10/22 03:41:35;;;;;;;1.33;0.40;;;13.60;99.90;;;;;;5095349;28;20115;-79
2022/10/22 03:44:02;;;;;;;1.40;0.45;;;13.60;99.90;;;;;;5088961;28;20067;-78
2022/10/22 03:46:28;;;;;;;0.90;0.50;;;13.60;99.90;;;;;;5095143;28;20057;-78
2022/10/22 03:48:54;;;;;;;1.90;0.60;;;13.60;99.90;;;;;;5095155;28;20027;-77
2022/10/22 03:51:19;;;;;;;1.10;0.50;;;13.60;99.90;;;;;;5082965;28;20122;-78
2022/10/22 03:53:45;;;;;;;1.50;0.57;;;13.60;99.90;;;;;;5093682;28;20502;-78
2022/10/22 03:56:12;;;;;;;1.70;0.57;;;13.60;99.90;;;;;;5095787;28;20149;-78
2022/10/22 03:58:40;;;;;;;2.58;1.52;;;13.60;99.90;;;;;;5089574;28;20036;-77
2022/10/22 04:01:08;;;;;;;4.20;0.88;;;13.60;99.90;;;;;;5098253;28;20024;-79
2022/10/22 04:03:34;;;;;;;1.10;0.60;;;13.60;99.90;;;;;;5098374;28;20034;-79
2022/10/22 04:06:12;;;;;;;3.35;0.50;;;13.60;99.90;;;;;;5097730;28;20557;-79
2022/10/22 04:08:44;;;;;;;2.13;0.70;;;13.60;99.90;;;;;;5098542;28;20522;-79
2022/10/22 04:11:14;;;;;;;0.70;0.60;;;13.50;99.90;;;;;;5099122;28;20660;-79
2022/10/22 04:13:40;;;;;;;1.20;0.60;;;13.50;99.90;;;;;;5097963;28;20433;-79
2022/10/22 04:16:22;;;;;;;3.90;0.55;;;13.50;99.90;;;;;;5098781;28;20411;-78
2022/10/22 04:18:49;;;;;;;3.25;0.60;;;13.50;99.90;;;;;;5098418;28;20020;-78
2022/10/22 04:21:17;;;;;;;1.55;0.60;;;13.50;99.90;;;;;;5096270;28;20020;-78
2022/10/22 04:23:48;;;;;;;3.10;0.80;;;13.50;99.90;;;;;;5095118;28;20107;-78
2022/10/22 04:26:15;;;;;;;2.60;0.57;;;13.50;99.90;;;;;;5094319;28;20081;-78
2022/10/22 04:28:48;;;;;;;1.88;0.88;;;13.50;99.90;;;;;;5095066;28;20385;-78
2022/10/22 04:31:37;;;;;;;1.17;0.70;;;13.40;99.90;;;;;;5088895;28;20431;-78
2022/10/22 04:34:03;;;;;;;4.07;0.90;;;13.40;99.90;;;;;;5084453;28;20532;-79
2022/10/22 04:36:28;;;;;;;2.90;0.77;;;13.40;99.90;;;;;;5094571;28;20024;-79
2022/10/22 04:38:59;;;;;;;1.05;0.73;;;13.40;99.90;;;;;;5093412;28;20107;-78
2022/10/22 04:41:28;;;;;;;1.95;1.13;;;13.40;99.90;;;;;;5093861;28;20103;-77
2022/10/22 04:43:55;;;;;;;2.38;1.00;;;13.30;99.90;;;;;;5096420;28;20020;-78
2022/10/22 04:46:25;;;;;;;2.10;0.90;;;13.30;99.90;;;;;;5096343;28;20028;-78
2022/10/22 04:48:54;;;;;;;1.73;0.93;;;13.30;99.90;;;;;;5095234;28;20032;-78
2022/10/22 04:51:26;;;;;;;2.47;1.10;;;13.30;99.90;;;;;;5096510;28;20043;-78
2022/10/22 04:53:53;;;;;;;1.60;0.70;;;13.30;99.90;;;;;;5089713;28;20028;-73
2022/10/22 04:56:21;;;;;;;1.63;0.82;;;13.30;99.90;;;;;;5093044;28;20187;-73
2022/10/22 04:59:03;;;;;;;2.88;1.00;;;13.30;99.90;;;;;;5085804;28;20438;-73
2022/10/22 05:01:30;;;;;;;2.28;0.90;;;13.30;99.90;;;;;;5084593;28;20024;-73
2022/10/22 05:03:59;;;;;;;1.42;0.80;;;13.30;99.90;;;;;;5082441;28;20016;-73
2022/10/22 05:06:25;;;;;;;1.73;0.90;;;13.30;99.90;;;;;;5087866;28;20036;-73
2022/10/22 05:08:53;;;;;;;1.52;0.63;;;13.30;99.90;;;;;;5083819;28;20028;-73
2022/10/22 05:11:34;;;;;;;1.63;0.52;;;13.30;99.90;;;;;;5085530;28;20103;-74
2022/10/22 05:14:08;;;;;;;3.67;0.60;;;13.30;99.90;;;;;;5083259;28;20039;-73
2022/10/22 05:16:34;;;;;;;;;;;13.40;99.90;;;;;;5087616;28;20369;-73
2022/10/22 05:19:01;;;;;;;2.97;0.70;;;13.30;99.90;;;;;;5087979;28;19935;-73
2022/10/22 05:21:27;;;;;;;3.08;0.70;;;13.40;99.90;;;;;;5086329;28;20431;-73
2022/10/22 05:23:54;;;;;;;1.17;0.60;;;13.40;99.90;;;;;;5096021;22;20043;-70
2022/10/22 05:26:21;;;;;;;1.17;0.52;;;13.40;99.90;;;;;;5082991;28;20116;-70
2022/10/22 05:28:48;;;;;;;1.23;0.70;;;13.40;99.90;;;;;;5086154;28;20429;-70
2022/10/22 05:31:18;;;;;;;1.20;0.70;;;13.40;99.90;;;;;;5088432;28;20385;-75
2022/10/22 05:33:53;;;;;;;4.50;0.73;;;13.40;99.90;;;;;;5046565;28;20031;-76
2022/10/22 05:36:22;;;;;;;3.80;0.80;;;13.40;99.90;;;;;;5063135;28;20469;-76
2022/10/22 05:38:48;;;;;;;3.85;0.90;;;13.30;99.90;;;;;;5065609;28;20448;-76
2022/10/22 05:41:20;;;;;;;2.92;0.93;;;13.30;99.90;;;;;;5072246;28;20116;-76
2022/10/22 05:43:46;;;;;;;2.55;0.90;;;13.30;99.90;;;;;;5065374;28;20507;-76
2022/10/22 05:46:21;;;;;;;2.05;0.90;;;13.30;99.90;;;;;;5070131;28;20081;-75
2022/10/22 05:49:04;;;;;;;3.88;0.60;;;13.30;99.90;;;;;;5068680;28;20047;-76
2022/10/22 05:51:31;;;;;;;1.75;1.05;;;13.30;99.90;;;;;;5064610;28;20028;-76
2022/10/22 05:54:02;;;;;;;3.22;0.80;;;13.20;99.90;;;;;;5065564;28;20040;-75
2022/10/22 05:56:32;;;;;;;3.00;1.17;;;13.20;99.90;;;;;;5067338;28;20029;-75
2022/10/22 05:58:58;;;;;;;2.45;0.70;;;13.20;99.90;;;;;;5053121;28;20032;-76
2022/10/22 06:01:28;;;;;;;5.45;1.13;;;13.20;99.90;;;;;;5053533;28;20020;-75
2022/10/22 06:04:00;;;;;;;5.40;1.52;;;13.20;99.90;;;;;;5071792;28;20048;-75
2022/10/22 06:06:44;;;;;;;3.67;1.13;;;13.20;99.90;;;;;;5063001;28;20544;-76
2022/10/22 06:09:32;;;;;;;1.10;0.70;;;13.20;99.90;;;;;;5067018;28;20070;-75
2022/10/22 06:11:58;;;;;;;2.55;1.23;;;13.20;99.90;;;;;;5068473;28;20052;-75
2022/10/22 06:14:24;;;;;;;3.63;1.40;;;13.20;99.90;;;;;;5052446;28;20032;-76
2022/10/22 06:16:57;;;;;;;3.35;1.23;;;13.20;99.90;;;;;;5073512;28;20064;-75
2022/10/22 06:19:26;;;;;;;5.90;1.50;;;13.20;99.90;;;;;;5062626;28;20025;-75
2022/10/22 06:21:52;;;;;;;3.33;1.27;;;13.20;99.90;;;;;;5066894;28;20021;-75
2022/10/22 06:24:21;;;;;;;2.35;1.27;;;13.20;99.90;;;;;;5057138;28;20044;-76
2022/10/22 06:26:50;;;;;;;4.68;1.73;;;13.20;99.90;;;;;;5050896;28;20423;-76
2022/10/22 06:29:15;;;;;;;3.70;1.50;;;13.20;99.90;;;;;;5073788;28;20103;-75
2022/10/22 06:31:44;;;;;;;2.22;0.98;;;13.20;99.90;;;;;;5073401;28;20097;-75
2022/10/22 06:34:12;;;;;;;2.95;1.13;;;13.20;99.90;;;;;;5052428;28;20413;-75
2022/10/22 06:36:43;;;;;;;3.22;1.10;;;13.20;99.90;;;;;;5065118;28;20116;-75
2022/10/22 06:39:16;;;;;;;3.08;1.08;;;13.30;99.90;;;;;;5043443;28;20024;-76
2022/10/22 06:41:57;;;;;;;4.10;1.30;;;13.30;99.90;;;;;;5055358;28;20407;-76
2022/10/22 06:44:26;;;;;;;4.13;1.85;;;13.30;99.90;;;;;;5064628;28;20401;-75
2022/10/22 06:46:52;;;;;;;3.78;1.85;;;13.30;99.90;;;;;;5067775;28;20027;-76
2022/10/22 06:49:20;;;;;;;6.30;2.80;;;13.30;99.90;;;;;;5065989;28;20100;-76
2022/10/22 06:51:50;;;;;;;8.95;2.97;;;13.30;99.90;;;;;;5068607;28;20550;-75
2022/10/22 06:54:19;;;;;;;11.27;2.60;;;13.40;99.90;;;;;;5066521;28;20555;-75
2022/10/22 06:56:48;;;;;;;7.18;2.20;;;13.40;99.90;;;;;;5066490;28;20104;-75
2022/10/22 06:59:16;;;;;;;12.05;3.45;;;13.40;99.90;;;;;;5046335;28;20028;-75
2022/10/22 07:01:42;;;;;;;10.48;2.90;;;13.40;99.90;;;;;;5066089;28;20046;-75
2022/10/22 07:04:11;;;;;;;11.73;3.25;;;13.50;99.90;;;;;;5054830;28;20879;-76
2022/10/22 07:06:36;;;;;;;9.52;2.50;;;13.50;99.90;;;;;;5069869;28;20032;-75
2022/10/22 07:09:02;;;;;;;8.00;2.72;;;13.50;99.90;;;;;;5058757;28;20082;-75
2022/10/22 07:11:36;;;;;;;9.02;2.40;;;13.50;99.90;;;;;;5054569;28;20048;-75
2022/10/22 07:14:08;;;;;;;4.82;1.70;;;13.50;99.90;;;;;;5065885;28;20050;-74
2022/10/22 07:16:45;;;;;;;5.38;1.98;;;13.60;99.90;;;;;;5070444;28;20028;-75
2022/10/22 07:19:12;;;;;;;3.22;1.58;;;13.60;99.90;;;;;;5072317;28;20485;-75
2022/10/22 07:21:40;;;;;;;6.45;1.75;;;13.60;99.90;;;;;;5047765;28;20025;-76
2022/10/22 07:24:08;;;;;;;3.72;1.85;;;13.60;99.90;;;;;;5063670;28;20516;-76
2022/10/22 07:26:33;;;;;;;3.70;1.85;;;13.60;99.90;;;;;;5064044;28;20077;-76
2022/10/22 07:29:05;;;;;;;3.47;1.50;;;13.60;99.90;;;;;;5050647;28;20028;-75
2022/10/22 07:31:37;;;;;;;5.57;1.70;;;13.70;99.90;;;;;;5059962;28;20059;-75
2022/10/22 07:34:02;;;;;;;3.85;1.25;;;13.70;99.90;;;;;;5041070;28;20440;-75
2022/10/22 07:36:28;;;;;;;2.95;1.33;;;13.70;99.90;;;;;;5060850;28;20032;-76
2022/10/22 07:38:58;;;;;;;3.10;1.60;;;13.70;99.90;;;;;;5065438;28;20020;-75
2022/10/22 07:41:25;;;;;;;4.10;1.13;;;13.80;99.90;;;;;;5050122;28;20032;-75
2022/10/22 07:43:55;;;;;;;5.95;1.30;;;13.80;99.90;;;;;;5071403;28;20028;-75
2022/10/22 07:46:21;;;;;;;3.13;1.52;;;13.90;99.90;;;;;;5059625;28;20452;-74
2022/10/22 07:48:49;;;;;;;3.75;1.42;;;13.90;99.90;;;;;;5072406;28;20028;-75
2022/10/22 07:51:16;;;;;;;3.50;1.38;;;13.90;99.90;;;;;;5062628;28;20028;-74
2022/10/22 07:53:56;;;;;;;3.88;1.10;;;14.00;99.90;;;;;;5068222;28;20033;-75
2022/10/22 07:56:22;;;;;;;1.88;1.17;;;14.10;99.90;;;;;;5066664;28;20456;-76
2022/10/22 07:58:51;;;;;;;1.33;0.63;;;14.20;99.90;;;;;;5070960;28;20052;-75
2022/10/22 08:01:19;;;;;;;3.33;1.17;;;14.30;99.90;;;;;;5060186;28;20032;-75
2022/10/22 08:03:45;;;;;;;4.15;1.00;;;14.40;99.90;;;;;;5048107;28;20512;-75
2022/10/22 08:06:14;;;;;;;2.47;1.10;;;14.40;99.90;;;;;;5067779;28;20056;-76
2022/10/22 08:08:44;;;;;;;2.15;1.00;;;14.60;99.90;;;;;;5050455;28;20539;-76
2022/10/22 08:11:13;;;;;;;1.95;1.45;;;14.70;99.90;;;;;;5064919;28;20029;-73
2022/10/22 08:13:38;;;;;;;1.80;1.20;;;14.80;99.90;;;;;;5049410;28;20032;-74
2022/10/22 08:16:04;;;;;;;1.00;0.70;;;14.90;99.90;;;;;;5065424;28;20051;-74
2022/10/22 08:18:37;;;;;;;4.20;1.30;;;15.00;99.90;;;;;;5049347;28;20032;-74
2022/10/22 08:21:06;;;;;;;3.90;1.40;;;15.20;99.90;;;;;;5064635;28;20037;-74
2022/10/22 08:23:31;;;;;;;2.47;1.52;;;15.30;99.90;;;;;;5049965;28;20085;-74
2022/10/22 08:25:58;;;;;;;3.90;1.30;;;15.30;99.90;;;;;;5049906;28;20119;-74
2022/10/22 08:28:24;;;;;;;5.57;1.33;;;15.50;99.90;;;;;;5064922;28;20104;-74
2022/10/22 08:30:50;;;;;;;2.58;1.23;;;15.50;99.90;;;;;;5043804;28;20036;-75
2022/10/22 08:33:16;;;;;;;4.35;1.40;;;15.60;99.90;;;;;;5053597;28;20607;-74
2022/10/22 08:35:46;;;;;;;3.03;1.48;;;15.70;99.90;;;;;;5068519;28;20082;-76
2022/10/22 08:38:11;;;;;;;4.93;1.48;;;15.70;99.90;;;;;;5064406;28;20029;-76
2022/10/22 08:40:39;;;;;;;2.92;1.70;;;15.80;99.90;;;;;;5068193;28;20104;-76
2022/10/22 08:43:27;;;;;;;3.10;1.42;;;15.80;99.90;;;;;;5067313;28;20470;-75
2022/10/22 08:45:56;;;;;;;2.97;1.30;;;15.90;99.90;;;;;;5064424;28;20020;-76
2022/10/22 08:48:21;;;;;;;2.03;1.27;;;16.00;99.90;;;;;;5068757;28;20028;-75
2022/10/22 08:50:51;;;;;;;2.30;1.30;;;16.00;99.90;;;;;;5067296;28;20025;-76
2022/10/22 08:53:21;;;;;;;4.30;1.25;;;16.10;99.90;;;;;;5064592;28;20013;-75
2022/10/22 08:55:48;;;;;;;3.65;1.30;;;16.10;99.90;;;;;;5069392;28;20028;-76
2022/10/22 08:58:35;;;;;;;5.70;1.17;;;16.10;99.90;;;;;;5068045;28;20056;-76
2022/10/22 09:01:13;;;;;;;5.90;1.40;;;16.10;99.90;;;;;;5066008;28;20016;-76
2022/10/22 09:03:50;;;;;;;3.42;1.35;;;16.20;99.90;;;;;;5053508;28;20100;-76
2022/10/22 09:06:23;;;;;;;3.92;1.10;;;16.20;99.90;;;;;;5074319;28;20073;-76
2022/10/22 09:08:49;;;;;;;1.50;0.93;;;16.30;99.90;;;;;;5065878;28;20032;-76
2022/10/22 09:11:18;;;;;;;3.00;1.40;;;16.30;99.90;;;;;;5062775;28;20072;-75
2022/10/22 09:13:45;;;;;;;2.92;1.13;;;16.40;99.90;;;;;;5065932;28;20032;-76
2022/10/22 09:16:18;;;;;;;2.83;1.10;;;16.50;99.90;;;;;;5048761;28;20629;-76
2022/10/22 09:18:59;;;;;;;4.57;1.40;;;16.50;99.90;;;;;;5065440;28;20032;-76
2022/10/22 09:21:52;;;;;;;1.48;0.85;;;16.50;99.90;;;;;;5069004;28;20025;-75
2022/10/22 09:24:31;;;;;;;1.95;0.60;;;16.60;99.90;;;;;;5028197;28;20040;-76
2022/10/22 09:26:57;;;;;;;3.72;0.90;;;16.70;99.90;;;;;;5065656;28;20070;-76
2022/10/22 09:29:28;;;;;;;2.72;1.10;;;16.70;99.90;;;;;;5070604;28;20099;-76
2022/10/22 09:31:53;;;;;;;2.47;0.80;;;16.70;99.90;;;;;;5073512;28;20115;-76
2022/10/22 09:34:20;;;;;;;1.30;0.80;;;16.80;99.90;;;;;;5072277;28;20559;-75
2022/10/22 09:36:45;;;;;;;3.63;0.80;;;16.80;99.90;;;;;;5065332;28;20100;-74
2022/10/22 09:39:47;;;;;;;2.25;1.23;;;16.90;99.90;;;;;;5057142;28;20132;-75
2022/10/22 09:42:18;;;;;;;1.80;0.98;;;17.00;99.90;;;;;;5045707;28;20091;-75
2022/10/22 09:45:01;;;;;;;1.48;1.10;;;17.00;99.90;;;;;;5072820;28;20031;-75
2022/10/22 09:47:42;;;;;;;4.47;1.15;;;17.10;99.90;;;;;;5066435;28;20032;-75
2022/10/22 09:50:26;;;;;;;2.78;1.00;;;17.20;99.90;;;;;;5070909;28;20032;-74
2022/10/22 09:53:20;;;;;;;4.18;1.15;;;17.20;99.90;;;;;;5071400;28;20108;-75
2022/10/22 09:55:52;;;;;;;3.85;1.40;;;17.30;99.90;;;;;;5066697;28;20451;-75
2022/10/22 09:58:19;;;;;;;3.20;1.10;;;17.30;99.90;;;;;;5072471;28;20700;-75
2022/10/22 10:00:56;;;;;;;4.32;0.90;;;17.30;99.90;;;;;;5068183;28;20028;-75
2022/10/22 10:03:25;;;;;;;3.35;0.80;;;17.40;99.90;;;;;;5069205;28;20021;-75
2022/10/22 10:05:54;;;;;;;2.17;0.90;;;17.50;99.90;;;;;;5052323;28;20017;-75
2022/10/22 10:08:23;;;;;;;7.43;1.08;;;17.50;99.90;;;;;;5049999;28;20017;-77
2022/10/22 10:10:54;;;;;;;2.50;1.35;;;17.60;99.90;;;;;;5051518;28;20021;-76
2022/10/22 10:13:34;;;;;;;5.57;1.55;;;17.70;99.90;;;;;;5069814;28;20107;-76
2022/10/22 10:16:30;;;;;;;5.35;1.08;;;17.80;99.90;;;;;;5072138;28;20033;-76
2022/10/22 10:19:17;;;;;;;4.05;1.08;;;17.90;99.90;;;;;;5071841;28;20024;-76
2022/10/22 10:22:13;;;;;;;1.40;0.70;;;18.00;99.90;;;;;;5068291;28;20484;-76
2022/10/22 10:25:12;;;;;;;2.80;1.10;;;17.90;99.90;;;;;;5072681;28;20029;-75
2022/10/22 10:28:12;;;;;;;2.97;1.38;;;17.90;99.90;;;;;;5072359;28;20039;-75
2022/10/22 10:31:01;;;;;;;2.60;1.00;;;17.80;99.90;;;;;;5051286;28;20028;-76
2022/10/22 10:33:32;;;;;;;3.78;1.20;;;17.80;99.90;;;;;;5048381;28;20025;-75
2022/10/22 10:36:08;;;;;;;6.63;1.70;;;17.80;99.90;;;;;;5066466;28;20020;-76
2022/10/22 10:38:52;;;;;;;3.70;1.15;;;17.80;99.90;;;;;;5063047;28;20021;-75
2022/10/22 10:41:37;;;;;;;2.88;1.45;;;17.70;99.90;;;;;;5071427;28;20028;-75
2022/10/22 10:44:21;;;;;;;3.90;1.08;;;17.70;99.90;;;;;;5055002;28;20028;-75
2022/10/22 10:46:59;;;;;;;;;;;17.70;99.90;;;;;;5070067;28;20032;-76
2022/10/22 10:49:28;;;;;;;3.50;1.15;;;17.60;99.90;;;;;;5050484;28;19909;-75
2022/10/22 10:52:16;;;;;;;4.28;0.88;;;17.60;99.90;;;;;;5048322;28;20485;-75
2022/10/22 10:54:55;;;;;;;1.63;0.85;;;17.60;99.90;;;;;;5067896;28;20095;-76
2022/10/22 10:57:52;;;;;;;3.63;1.02;;;17.50;99.90;;;;;;5055670;28;20400;-75
2022/10/22 11:00:19;;;;;;;3.40;1.00;;;17.50;99.90;;;;;;5068225;28;20050;-75
2022/10/22 11:03:00;;;;;;;4.70;1.15;;;17.50;99.90;;;;;;5064988;28;20111;-75
2022/10/22 11:05:44;;;;;;;4.28;1.30;;;17.60;99.90;;;;;;5070525;28;20434;-74
2022/10/22 11:08:44;;;;;;;4.03;1.45;;;17.70;99.90;;;;;;5071924;28;20021;-75
2022/10/22 11:11:25;;;;;;;3.90;1.58;;;17.70;99.90;;;;;;5056397;28;20028;-74
2022/10/22 11:14:00;;;;;;;3.40;1.88;;;17.80;99.90;;;;;;5044869;28;20455;-74
2022/10/22 11:16:44;;;;;;;2.10;1.10;;;17.90;99.90;;;;;;5069438;28;20024;-74
2022/10/22 11:19:24;;;;;;;2.15;1.17;;;17.90;99.90;;;;;;5066025;28;20362;-74
2022/10/22 11:22:05;;;;;;;4.13;1.08;;;17.90;99.90;;;;;;5064560;28;20025;-74
2022/10/22 11:25:11;;;;;;;2.75;0.85;;;17.90;99.90;;;;;;5065544;22;20048;-74
2022/10/22 11:28:00;;;;;;;3.70;1.17;;;18.00;99.90;;;;;;5035291;28;20113;-74
2022/10/22 11:30:32;;;;;;;3.65;1.02;;;18.00;99.90;;;;;;5067798;28;20032;-74
2022/10/22 11:33:01;;;;;;;5.43;1.05;;;18.00;99.90;;;;;;5047071;28;20091;-74
2022/10/22 11:35:34;;;;;;;3.30;1.08;;;18.10;99.90;;;;;;5048685;28;20017;-73
2022/10/22 11:38:04;;;;;;;3.47;1.30;;;18.10;99.90;;;;;;5041424;28;20524;-75
2022/10/22 11:40:36;;;;;;;3.13;1.10;;;18.20;99.90;;;;;;5067863;28;20028;-75
2022/10/22 11:43:08;;;;;;;2.30;0.70;;;18.20;99.90;;;;;;5043129;28;20020;-75
2022/10/22 11:45:42;;;;;;;4.07;0.85;;;18.20;99.90;;;;;;5058570;22;20181;-76
2022/10/22 11:48:17;;;;;;;6.25;1.10;;;18.20;99.90;;;;;;5079470;28;20078;-78
2022/10/22 11:50:53;;;;;;;3.67;1.00;;;18.30;99.90;;;;;;5078709;28;20024;-78
2022/10/22 11:53:24;;;;;;;6.93;1.08;;;18.30;99.90;;;;;;5077287;28;20446;-79
2022/10/22 11:55:54;;;;;;;5.75;0.80;;;18.30;99.90;;;;;;5071192;28;20042;-79
2022/10/22 11:58:25;;;;;;;3.88;1.02;;;18.30;99.90;;;;;;5082667;28;20016;-78
2022/10/22 12:01:22;;;;;;;3.13;1.08;;;18.30;99.90;;;;;;5117114;22;20068;-76
2022/10/22 12:03:52;;;;;;;1.98;1.15;;;18.30;99.90;;;;;;5103754;27;20333;-76
2022/10/22 12:06:40;;;;;;;4.53;1.35;;;18.30;99.90;;;;;;5102071;28;20027;-76
2022/10/22 12:09:10;;;;;;;2.95;1.40;;;18.30;99.90;;;;;;5105193;28;20463;-77
2022/10/22 12:11:48;;;;;;;4.20;1.20;;;18.30;99.90;;;;;;5105547;28;21317;-76
2022/10/22 12:14:27;;;;;;;3.58;1.15;;;18.20;99.90;;;;;;5108288;28;20066;-77
2022/10/22 12:17:12;;;;;;;4.15;1.20;;;18.10;99.90;;;;;;5106544;28;20230;-77
2022/10/22 12:19:40;;;;;;;11.43;1.50;;;18.10;99.90;;;;;;5105308;28;20540;-77
2022/10/22 12:22:05;;;;;;;3.45;1.23;;;18.10;99.90;;;;;;5089682;28;20027;-77
2022/10/22 12:24:36;;;;;;;3.67;1.10;;;18.00;99.90;;;;;;5087551;28;20040;-76
2022/10/22 12:27:02;;;;;;;2.38;0.90;;;18.10;99.90;;;;;;5111103;28;20111;-77
2022/10/22 12:29:31;;;;;;;5.43;1.15;;;18.00;99.90;;;;;;5108801;28;20494;-77
2022/10/22 12:32:03;;;;;;;7.35;1.70;;;18.00;99.90;;;;;;5106277;28;20028;-77
2022/10/22 12:34:45;;;;;;;5.47;1.13;;;17.90;99.90;;;;;;5102958;28;20119;-77
2022/10/22 12:37:13;;;;;;;4.05;1.30;;;18.00;99.90;;;;;;5102326;28;20027;-77
2022/10/22 12:39:43;;;;;;;4.20;1.02;;;17.90;99.90;;;;;;5086933;28;20394;-76
2022/10/22 12:42:13;;;;;;;5.05;2.08;;;18.00;99.90;;;;;;5107700;28;20031;-77
2022/10/22 12:44:39;;;;;;;5.68;1.60;;;18.00;99.90;;;;;;5104453;28;20017;-76
2022/10/22 12:47:07;;;;;;;4.13;1.20;;;18.00;99.90;;;;;;5083094;28;20031;-77
2022/10/22 12:49:40;;;;;;;4.43;1.15;;;18.00;99.90;;;;;;5087776;28;20528;-77
2022/10/22 12:52:12;;;;;;;6.75;1.58;;;18.10;99.90;;;;;;5104967;28;20023;-76
2022/10/22 12:54:46;;;;;;;5.35;1.25;;;18.20;99.90;;;;;;5103321;28;20061;-77
2022/10/22 12:57:15;;;;;;;3.30;1.20;;;18.20;99.90;;;;;;5084525;28;20031;-77
2022/10/22 12:59:43;;;;;;;4.10;1.00;;;18.20;99.90;;;;;;5084812;28;20035;-77
2022/10/22 13:02:24;;;;;;;1.83;0.93;;;18.20;99.90;;;;;;5082378;28;20035;-75
2022/10/22 13:05:15;;;;;;;5.53;1.02;;;18.30;99.90;;;;;;5104190;28;20043;-76
2022/10/22 13:07:51;;;;;;;5.15;1.02;;;18.30;99.90;;;;;;5089165;28;20027;-77
2022/10/22 13:10:25;;;;;;;2.75;1.00;;;18.40;99.90;;;;;;5102927;28;20092;-76
2022/10/22 13:12:56;;;;;;;3.05;1.13;;;18.40;99.90;;;;;;5086269;28;20487;-76